Time;durP1;ratioP1;P1;durP2;ratioP2;P2;SDS_P1;SDS_P2;PMS_P1;PMS_P2;Temp;Humidity;BMP_temperature;BMP_pressure;BME280_temperature;BME280_humidity;BME280_pressure;Samples;Min_cycle;Max_cycle;Signal;HPM_P1;HPM_P2
2024/01/31 00:01:42;;;;;;;16.48;7.43;;;;;;;;;;5000876;28;20271;-69
2024/01/31 00:04:08;;;;;;;13.32;8.05;;;;;;;;;;5005247;28;20022;-69
2024/01/31 00:06:33;;;;;;;16.40;6.95;;;;;;;;;;5005311;28;20052;-69
2024/01/31 00:09:00;;;;;;;17.93;9.37;;;;;;;;;;5010552;28;20022;-69
2024/01/31 00:11:26;;;;;;;27.08;9.32;;;;;;;;;;5005509;28;20708;-69
2024/01/31 00:13:51;;;;;;;17.52;8.93;;;;;;;;;;5005549;28;20113;-69
2024/01/31 00:16:16;;;;;;;16.30;8.25;;;;;;;;;;5005939;28;20015;-69
2024/01/31 00:18:42;;;;;;;17.23;7.82;;;;;;;;;;5008996;28;20042;-69
2024/01/31 00:21:07;;;;;;;18.15;8.27;;;;;;;;;;5008755;28;20014;-69
2024/01/31 00:23:32;;;;;;;22.60;9.40;;;;;;;;;;5001025;28;20096;-69
2024/01/31 00:25:58;;;;;;;27.48;8.93;;;;;;;;;;4999250;28;20292;-69
2024/01/31 00:28:24;;;;;;;22.17;9.80;;;;;;;;;;4999876;28;20022;-69
2024/01/31 00:30:49;;;;;;;21.02;9.63;;;;;;;;;;5003437;28;20366;-69
2024/01/31 00:33:14;;;;;;;17.48;7.85;;;;;;;;;;5002768;28;20480;-69
2024/01/31 00:35:39;;;;;;;19.00;8.70;;;;;;;;;;5007297;28;20511;-69
2024/01/31 00:38:04;;;;;;;25.80;10.35;;;;;;;;;;4998405;28;20285;-69
2024/01/31 00:40:30;;;;;;;30.10;10.70;;;;;;;;;;5005640;28;20164;-69
2024/01/31 00:42:55;;;;;;;25.02;9.88;;;;;;;;;;5002215;28;20100;-69
2024/01/31 00:45:20;;;;;;;21.27;9.68;;;;;;;;;;5002721;28;20044;-69
2024/01/31 00:47:45;;;;;;;25.33;10.13;;;;;;;;;;5009837;28;20017;-69
2024/01/31 00:50:11;;;;;;;19.65;9.13;;;;;;;;;;5008492;28;20041;-69
2024/01/31 00:52:36;;;;;;;21.65;10.90;;;;;;;;;;5008785;28;20021;-69
2024/01/31 00:55:02;;;;;;;26.20;12.10;;;;;;;;;;5005330;28;20225;-69
2024/01/31 00:57:27;;;;;;;24.52;12.82;;;;;;;;;;5009619;28;20687;-69
2024/01/31 00:59:53;;;;;;;28.13;12.75;;;;;;;;;;5009318;28;20028;-69
2024/01/31 01:02:18;;;;;;;24.05;11.48;;;;;;;;;;5005003;28;20034;-69
2024/01/31 01:04:43;;;;;;;25.93;12.07;;;;;;;;;;5000942;28;20018;-69
2024/01/31 01:07:08;;;;;;;23.87;11.20;;;;;;;;;;5007219;28;20288;-69
2024/01/31 01:09:34;;;;;;;23.88;10.98;;;;;;;;;;5009346;28;20257;-69
2024/01/31 01:11:59;;;;;;;25.05;10.90;;;;;;;;;;5009664;28;20076;-69
2024/01/31 01:14:24;;;;;;;24.00;11.23;;;;;;;;;;5005246;28;20038;-69
2024/01/31 01:16:49;;;;;;;27.25;11.73;;;;;;;;;;5003608;28;20261;-69
2024/01/31 01:19:15;;;;;;;25.17;10.77;;;;;;;;;;5005248;28;20495;-69
2024/01/31 01:21:40;;;;;;;25.15;11.90;;;;;;;;;;5003807;28;20261;-69
2024/01/31 01:24:05;;;;;;;25.00;12.00;;;;;;;;;;5000818;28;20021;-69
2024/01/31 01:26:30;;;;;;;28.23;12.13;;;;;;;;;;5005095;28;20257;-69
2024/01/31 01:28:56;;;;;;;28.00;11.23;;;;;;;;;;5006532;28;20030;-69
2024/01/31 01:31:21;;;;;;;29.65;13.30;;;;;;;;;;5004298;28;20285;-69
2024/01/31 01:33:46;;;;;;;27.80;12.65;;;;;;;;;;4999216;28;20048;-69
2024/01/31 01:36:11;;;;;;;27.37;12.53;;;;;;;;;;4998689;28;20018;-69
2024/01/31 01:38:37;;;;;;;29.17;12.20;;;;;;;;;;5005297;28;20303;-69
2024/01/31 01:41:03;;;;;;;28.02;12.55;;;;;;;;;;5005280;28;20018;-69
2024/01/31 01:43:28;;;;;;;43.50;13.30;;;;;;;;;;5008503;28;20037;-69
2024/01/31 01:45:58;;;;;;;28.55;12.70;;;;;;;;;;5004146;28;20525;-69
2024/01/31 01:48:23;;;;;;;;;;;;;;;;;;5013004;28;20026;-69
2024/01/31 01:50:48;;;;;;;29.95;13.05;;;;;;;;;;5005838;28;19964;-69
2024/01/31 01:53:14;;;;;;;33.97;13.65;;;;;;;;;;5002384;28;20077;-69
2024/01/31 01:55:41;;;;;;;32.10;13.93;;;;;;;;;;5008206;28;20096;-70
2024/01/31 01:58:06;;;;;;;30.85;12.77;;;;;;;;;;5007281;28;20022;-69
2024/01/31 02:00:33;;;;;;;32.40;13.35;;;;;;;;;;5006523;28;20025;-69
2024/01/31 02:02:59;;;;;;;31.23;13.60;;;;;;;;;;5009488;28;20061;-69
2024/01/31 02:05:25;;;;;;;33.55;13.73;;;;;;;;;;5010623;28;20050;-69
2024/01/31 02:07:51;;;;;;;37.72;15.05;;;;;;;;;;5004706;28;20496;-69
2024/01/31 02:10:16;;;;;;;35.28;15.05;;;;;;;;;;5008483;28;20485;-69
2024/01/31 02:12:41;;;;;;;32.97;14.40;;;;;;;;;;5006748;28;20362;-70
2024/01/31 02:15:07;;;;;;;33.70;15.73;;;;;;;;;;5009178;28;20062;-69
2024/01/31 02:17:33;;;;;;;33.53;14.35;;;;;;;;;;5011788;28;20308;-69
2024/01/31 02:19:58;;;;;;;34.03;14.95;;;;;;;;;;5009097;28;20013;-70
2024/01/31 02:22:23;;;;;;;32.97;15.15;;;;;;;;;;5008049;28;20022;-69
2024/01/31 02:24:49;;;;;;;33.67;14.60;;;;;;;;;;5007231;28;20026;-69
2024/01/31 02:27:14;;;;;;;37.20;14.57;;;;;;;;;;5010455;28;20079;-69
2024/01/31 02:29:39;;;;;;;33.90;14.40;;;;;;;;;;5007661;28;20349;-70
2024/01/31 02:32:05;;;;;;;37.55;15.93;;;;;;;;;;5007868;28;20125;-69
2024/01/31 02:34:30;;;;;;;38.55;15.48;;;;;;;;;;5008631;28;20028;-69
2024/01/31 02:36:55;;;;;;;38.67;16.50;;;;;;;;;;5010932;28;20105;-69
2024/01/31 02:39:21;;;;;;;41.10;16.75;;;;;;;;;;5003693;28;20057;-69
2024/01/31 02:41:46;;;;;;;42.83;19.38;;;;;;;;;;5010038;28;20108;-69
2024/01/31 02:44:14;;;;;;;45.55;18.88;;;;;;;;;;5004559;28;20092;-69
2024/01/31 02:46:39;;;;;;;44.63;20.15;;;;;;;;;;5010441;28;20014;-69
2024/01/31 02:49:07;;;;;;;44.80;16.83;;;;;;;;;;5010236;28;20159;-69
2024/01/31 02:51:33;;;;;;;47.08;17.83;;;;;;;;;;5009287;28;20271;-69
2024/01/31 02:53:59;;;;;;;50.28;18.58;;;;;;;;;;5011647;28;20420;-69
2024/01/31 02:56:24;;;;;;;47.90;19.47;;;;;;;;;;5007329;28;20037;-70
2024/01/31 02:58:49;;;;;;;42.20;18.30;;;;;;;;;;5006572;28;20284;-69
2024/01/31 03:01:14;;;;;;;46.93;18.23;;;;;;;;;;5007483;28;20703;-69
2024/01/31 03:03:39;;;;;;;43.72;18.88;;;;;;;;;;5004754;28;20277;-69
2024/01/31 03:06:05;;;;;;;51.08;22.63;;;;;;;;;;5006931;28;20022;-69
2024/01/31 03:08:30;;;;;;;47.70;18.05;;;;;;;;;;5002816;28;20022;-69
2024/01/31 03:10:55;;;;;;;43.57;18.60;;;;;;;;;;5007865;28;20452;-69
2024/01/31 03:13:20;;;;;;;40.97;17.42;;;;;;;;;;5006911;28;20372;-69
2024/01/31 03:15:45;;;;;;;47.67;16.43;;;;;;;;;;5008971;28;20045;-69
2024/01/31 03:18:10;;;;;;;40.80;15.87;;;;;;;;;;5004745;28;20272;-70
2024/01/31 03:20:36;;;;;;;46.42;17.85;;;;;;;;;;5007214;28;20813;-69
2024/01/31 03:23:01;;;;;;;49.22;18.23;;;;;;;;;;5009860;28;20100;-69
2024/01/31 03:25:27;;;;;;;47.38;16.85;;;;;;;;;;5003670;28;20496;-69
2024/01/31 03:27:52;;;;;;;45.05;16.45;;;;;;;;;;5006449;28;20073;-69
2024/01/31 03:30:17;;;;;;;41.58;14.52;;;;;;;;;;5005131;28;20388;-70
2024/01/31 03:32:43;;;;;;;33.87;14.50;;;;;;;;;;5005969;28;20030;-69
2024/01/31 03:35:08;;;;;;;29.33;13.05;;;;;;;;;;5004566;28;20583;-70
2024/01/31 03:37:33;;;;;;;38.70;14.05;;;;;;;;;;5009429;28;20457;-70
2024/01/31 03:39:59;;;;;;;39.85;14.95;;;;;;;;;;5007343;28;20045;-70
2024/01/31 03:42:24;;;;;;;40.83;13.80;;;;;;;;;;5005326;28;20064;-70
2024/01/31 03:44:49;;;;;;;33.85;11.57;;;;;;;;;;5007374;28;20040;-69
2024/01/31 03:47:14;;;;;;;35.08;11.57;;;;;;;;;;5001828;28;20044;-70
2024/01/31 03:49:40;;;;;;;40.95;12.77;;;;;;;;;;5006821;28;20040;-69
2024/01/31 03:52:05;;;;;;;37.83;12.63;;;;;;;;;;5005664;28;20056;-70
2024/01/31 03:54:30;;;;;;;33.90;12.93;;;;;;;;;;5008635;28;20033;-69
2024/01/31 03:56:55;;;;;;;36.50;11.27;;;;;;;;;;5004036;28;20033;-69
2024/01/31 03:59:21;;;;;;;40.73;11.67;;;;;;;;;;5004719;28;20763;-69
2024/01/31 04:01:48;;;;;;;34.67;12.38;;;;;;;;;;5006448;28;20260;-70
2024/01/31 04:04:13;;;;;;;38.17;12.35;;;;;;;;;;5004492;28;20080;-70
2024/01/31 04:06:38;;;;;;;40.37;12.00;;;;;;;;;;5006618;28;20097;-70
2024/01/31 04:09:05;;;;;;;33.70;11.70;;;;;;;;;;5004735;28;20292;-70
2024/01/31 04:11:34;;;;;;;32.17;11.75;;;;;;;;;;5005861;28;20261;-70
2024/01/31 04:13:59;;;;;;;32.38;11.25;;;;;;;;;;5002658;28;20054;-70
2024/01/31 04:16:24;;;;;;;38.47;12.07;;;;;;;;;;5008013;28;20301;-69
2024/01/31 04:18:49;;;;;;;37.33;12.33;;;;;;;;;;5008690;28;20034;-70
2024/01/31 04:21:19;;;;;;;35.63;11.57;;;;;;;;;;5008624;28;20661;-70
2024/01/31 04:23:44;;;;;;;36.42;11.95;;;;;;;;;;5009657;28;20456;-69
2024/01/31 04:26:09;;;;;;;35.37;13.00;;;;;;;;;;5007487;28;20034;-70
2024/01/31 04:28:34;;;;;;;39.30;14.00;;;;;;;;;;5003496;28;20536;-69
2024/01/31 04:31:00;;;;;;;33.67;12.75;;;;;;;;;;5005603;28;20676;-70
2024/01/31 04:33:25;;;;;;;37.03;13.57;;;;;;;;;;5002855;28;20473;-70
2024/01/31 04:35:50;;;;;;;38.45;14.15;;;;;;;;;;5005879;28;20285;-70
2024/01/31 04:38:16;;;;;;;38.95;13.50;;;;;;;;;;5003032;28;20146;-69
2024/01/31 04:40:41;;;;;;;40.72;13.35;;;;;;;;;;5005990;28;20448;-70
2024/01/31 04:43:06;;;;;;;40.55;13.95;;;;;;;;;;5004413;28;20110;-69
2024/01/31 04:45:32;;;;;;;39.93;14.60;;;;;;;;;;5004044;28;20033;-70
2024/01/31 04:47:57;;;;;;;50.90;15.48;;;;;;;;;;5005866;28;20245;-70
2024/01/31 04:50:22;;;;;;;43.53;15.70;;;;;;;;;;5007651;28;20404;-70
2024/01/31 04:52:47;;;;;;;45.13;15.48;;;;;;;;;;5005231;28;20029;-70
2024/01/31 04:55:13;;;;;;;42.63;15.57;;;;;;;;;;5005243;28;20034;-69
2024/01/31 04:57:39;;;;;;;44.83;16.92;;;;;;;;;;5006793;28;20792;-70
2024/01/31 05:00:05;;;;;;;42.53;16.25;;;;;;;;;;5005799;28;20029;-70
2024/01/31 05:02:30;;;;;;;57.10;18.67;;;;;;;;;;5005616;28;20134;-70
2024/01/31 05:04:55;;;;;;;39.47;16.50;;;;;;;;;;5006564;28;20037;-70
2024/01/31 05:07:20;;;;;;;52.20;17.73;;;;;;;;;;5003620;28;20656;-70
2024/01/31 05:09:45;;;;;;;47.30;17.27;;;;;;;;;;5000522;28;20314;-70
2024/01/31 05:12:10;;;;;;;43.17;16.03;;;;;;;;;;5007942;28;20260;-70
2024/01/31 05:14:36;;;;;;;64.80;17.97;;;;;;;;;;5008788;28;20261;-70
2024/01/31 05:17:01;;;;;;;49.03;16.55;;;;;;;;;;5003817;28;20308;-70
2024/01/31 05:19:27;;;;;;;47.80;15.77;;;;;;;;;;5008355;28;20061;-70
2024/01/31 05:21:52;;;;;;;52.58;17.58;;;;;;;;;;5007552;28;20025;-70
2024/01/31 05:24:18;;;;;;;50.15;16.27;;;;;;;;;;5011276;28;20393;-70
2024/01/31 05:26:43;;;;;;;48.63;16.73;;;;;;;;;;5009677;28;20022;-70
2024/01/31 05:29:09;;;;;;;50.63;17.40;;;;;;;;;;5009921;28;20040;-70
2024/01/31 05:31:34;;;;;;;53.20;17.42;;;;;;;;;;5010971;28;20028;-70
2024/01/31 05:33:59;;;;;;;43.83;15.82;;;;;;;;;;5008220;28;20049;-70
2024/01/31 05:36:25;;;;;;;43.15;15.27;;;;;;;;;;5006998;28;20543;-70
2024/01/31 05:38:50;;;;;;;42.03;16.77;;;;;;;;;;5006390;28;20099;-69
2024/01/31 05:41:15;;;;;;;44.85;17.17;;;;;;;;;;5012893;28;20026;-70
2024/01/31 05:43:40;;;;;;;48.50;18.35;;;;;;;;;;5007640;28;20034;-69
2024/01/31 05:46:05;;;;;;;58.22;18.67;;;;;;;;;;5011101;28;20018;-70
2024/01/31 05:48:31;;;;;;;49.72;16.38;;;;;;;;;;5011446;28;20030;-70
2024/01/31 05:50:56;;;;;;;53.53;16.45;;;;;;;;;;5005067;28;20153;-69
2024/01/31 05:53:21;;;;;;;45.80;16.57;;;;;;;;;;5009181;28;20397;-70
2024/01/31 05:55:46;;;;;;;48.27;17.53;;;;;;;;;;5007681;28;20340;-70
2024/01/31 05:58:11;;;;;;;49.90;18.35;;;;;;;;;;5007134;28;20606;-69
2024/01/31 06:00:37;;;;;;;53.38;18.95;;;;;;;;;;5009486;28;20017;-70
2024/01/31 06:03:02;;;;;;;52.50;18.92;;;;;;;;;;5009986;28;20029;-70
2024/01/31 06:05:28;;;;;;;51.00;18.33;;;;;;;;;;5008338;28;20112;-70
2024/01/31 06:07:53;;;;;;;52.45;17.45;;;;;;;;;;5000928;28;20057;-70
2024/01/31 06:10:19;;;;;;;49.50;18.30;;;;;;;;;;5008551;28;20358;-70
2024/01/31 06:12:44;;;;;;;54.78;18.60;;;;;;;;;;5008217;28;20030;-69
2024/01/31 06:15:09;;;;;;;59.17;17.92;;;;;;;;;;5006437;28;20496;-69
2024/01/31 06:17:34;;;;;;;54.72;18.00;;;;;;;;;;5007087;28;20029;-70
2024/01/31 06:20:00;;;;;;;49.67;16.80;;;;;;;;;;5003174;28;20034;-69
2024/01/31 06:22:25;;;;;;;49.78;17.10;;;;;;;;;;5004319;28;20475;-68
2024/01/31 06:24:51;;;;;;;53.10;17.40;;;;;;;;;;5005610;28;20025;-68
2024/01/31 06:27:16;;;;;;;46.90;18.07;;;;;;;;;;5004802;28;20037;-68
2024/01/31 06:29:41;;;;;;;53.65;18.25;;;;;;;;;;5006178;28;20272;-68
2024/01/31 06:32:06;;;;;;;57.58;18.67;;;;;;;;;;5003858;28;20046;-68
2024/01/31 06:34:32;;;;;;;59.38;21.52;;;;;;;;;;5004558;28;20061;-68
2024/01/31 06:36:57;;;;;;;60.73;21.20;;;;;;;;;;5005411;28;20403;-68
2024/01/31 06:39:22;;;;;;;47.43;17.97;;;;;;;;;;5004788;28;20289;-68
2024/01/31 06:41:47;;;;;;;58.95;20.10;;;;;;;;;;5004515;28;20564;-68
2024/01/31 06:44:12;;;;;;;55.03;18.65;;;;;;;;;;5003735;28;20045;-68
2024/01/31 06:46:38;;;;;;;57.92;20.77;;;;;;;;;;5006489;28;20022;-69
2024/01/31 06:49:03;;;;;;;52.03;18.65;;;;;;;;;;5005173;28;20037;-69
2024/01/31 06:51:28;;;;;;;53.72;19.27;;;;;;;;;;5005771;28;20037;-69
2024/01/31 06:53:54;;;;;;;67.05;19.48;;;;;;;;;;5006554;28;20245;-69
2024/01/31 06:56:19;;;;;;;63.03;19.88;;;;;;;;;;5007614;28;20030;-69
2024/01/31 06:58:48;;;;;;;57.42;20.23;;;;;;;;;;5008958;28;20032;-69
2024/01/31 07:01:16;;;;;;;62.97;21.35;;;;;;;;;;5006854;28;20112;-69
2024/01/31 07:03:42;;;;;;;67.85;19.88;;;;;;;;;;5005551;28;20021;-69
2024/01/31 07:06:07;;;;;;;66.60;21.90;;;;;;;;;;5005658;28;20022;-69
2024/01/31 07:08:32;;;;;;;64.47;23.27;;;;;;;;;;5008981;28;20021;-69
2024/01/31 07:10:57;;;;;;;67.85;21.80;;;;;;;;;;5005563;28;20057;-69
2024/01/31 07:13:23;;;;;;;65.67;22.30;;;;;;;;;;5008879;28;20049;-69
2024/01/31 07:15:48;;;;;;;61.78;20.88;;;;;;;;;;4999744;28;20625;-69
2024/01/31 07:18:13;;;;;;;58.83;21.20;;;;;;;;;;5006296;28;20053;-69
2024/01/31 07:20:38;;;;;;;58.70;19.33;;;;;;;;;;5003267;28;20312;-69
2024/01/31 07:23:04;;;;;;;60.50;19.77;;;;;;;;;;5005684;28;20335;-69
2024/01/31 07:25:29;;;;;;;67.70;22.42;;;;;;;;;;5007512;28;20535;-69
2024/01/31 07:27:54;;;;;;;62.47;22.10;;;;;;;;;;5006599;28;20097;-69
2024/01/31 07:30:20;;;;;;;59.80;23.13;;;;;;;;;;5010044;28;20477;-69
2024/01/31 07:32:45;;;;;;;64.18;22.40;;;;;;;;;;5007753;28;20261;-70
2024/01/31 07:35:11;;;;;;;60.58;22.05;;;;;;;;;;5005501;28;20026;-69
2024/01/31 07:37:36;;;;;;;52.20;18.92;;;;;;;;;;5008191;28;20049;-69
2024/01/31 07:40:03;;;;;;;51.28;18.38;;;;;;;;;;5008214;28;20141;-69
2024/01/31 07:42:29;;;;;;;28.25;9.52;;;;;;;;;;5008670;28;20029;-70
2024/01/31 07:44:54;;;;;;;68.95;20.27;;;;;;;;;;5007037;28;20026;-69
2024/01/31 07:47:19;;;;;;;69.70;23.10;;;;;;;;;;5010330;28;20014;-69
2024/01/31 07:49:45;;;;;;;69.90;21.50;;;;;;;;;;5010879;28;20021;-69
2024/01/31 07:52:10;;;;;;;63.65;21.45;;;;;;;;;;5006636;28;20764;-69
2024/01/31 07:54:36;;;;;;;68.18;21.30;;;;;;;;;;5005168;28;20026;-69
2024/01/31 07:57:01;;;;;;;60.47;21.50;;;;;;;;;;5007888;28;20084;-69
2024/01/31 07:59:26;;;;;;;68.95;21.45;;;;;;;;;;5008801;28;20700;-69
2024/01/31 08:01:51;;;;;;;60.93;19.07;;;;;;;;;;5007590;28;20013;-69
2024/01/31 08:04:16;;;;;;;45.53;16.00;;;;;;;;;;5008448;28;20269;-69
2024/01/31 08:06:42;;;;;;;64.47;20.67;;;;;;;;;;5007467;28;20257;-69
2024/01/31 08:09:07;;;;;;;52.80;18.15;;;;;;;;;;5006911;28;20272;-69
2024/01/31 08:11:33;;;;;;;68.10;22.98;;;;;;;;;;5004009;28;20106;-69
2024/01/31 08:13:58;;;;;;;70.55;22.45;;;;;;;;;;5007327;28;20030;-69
2024/01/31 08:16:24;;;;;;;62.22;19.83;;;;;;;;;;5010482;28;20062;-69
2024/01/31 08:18:49;;;;;;;65.33;22.73;;;;;;;;;;5007167;28;20105;-70
2024/01/31 08:21:14;;;;;;;78.23;21.30;;;;;;;;;;5006908;28;20760;-69
2024/01/31 08:23:40;;;;;;;69.03;18.73;;;;;;;;;;5007336;28;20625;-69
2024/01/31 08:26:06;;;;;;;57.08;20.02;;;;;;;;;;5005831;28;20643;-69
2024/01/31 08:28:31;;;;;;;66.75;19.70;;;;;;;;;;5009346;28;20042;-69
2024/01/31 08:30:56;;;;;;;60.53;20.55;;;;;;;;;;5004893;28;20053;-69
2024/01/31 08:33:21;;;;;;;65.10;22.13;;;;;;;;;;5006615;28;20021;-69
2024/01/31 08:35:46;;;;;;;61.53;21.83;;;;;;;;;;5007327;28;20260;-69
2024/01/31 08:38:11;;;;;;;73.03;22.50;;;;;;;;;;5007570;28;20803;-69
2024/01/31 08:40:37;;;;;;;59.23;19.50;;;;;;;;;;5004928;28;20287;-69
2024/01/31 08:43:02;;;;;;;54.17;19.38;;;;;;;;;;5003151;28;20609;-69
2024/01/31 08:45:27;;;;;;;56.38;20.23;;;;;;;;;;5006469;28;20061;-69
2024/01/31 08:47:52;;;;;;;75.83;22.43;;;;;;;;;;5005820;28;20124;-69
2024/01/31 08:50:17;;;;;;;63.00;20.40;;;;;;;;;;5009783;28;20315;-69
2024/01/31 08:52:43;;;;;;;63.72;21.42;;;;;;;;;;5008802;28;20271;-69
2024/01/31 08:55:08;;;;;;;60.43;21.97;;;;;;;;;;5006586;28;20069;-69
2024/01/31 08:57:34;;;;;;;66.38;21.35;;;;;;;;;;5006828;28;20276;-69
2024/01/31 08:59:59;;;;;;;56.37;20.93;;;;;;;;;;5003518;28;20396;-69
2024/01/31 09:02:24;;;;;;;65.03;19.73;;;;;;;;;;5004291;28;20249;-69
2024/01/31 09:04:49;;;;;;;59.70;18.52;;;;;;;;;;5007155;28;20026;-69
2024/01/31 09:07:14;;;;;;;50.90;20.03;;;;;;;;;;5001081;28;20027;-69
2024/01/31 09:09:40;;;;;;;63.37;20.90;;;;;;;;;;5005165;28;20260;-69
2024/01/31 09:12:05;;;;;;;64.45;19.58;;;;;;;;;;5007324;28;20351;-69
2024/01/31 09:14:31;;;;;;;54.97;18.70;;;;;;;;;;5004605;28;20026;-69
2024/01/31 09:16:56;;;;;;;50.15;17.63;;;;;;;;;;5006402;28;20037;-69
2024/01/31 09:19:21;;;;;;;62.65;19.55;;;;;;;;;;5009353;28;20075;-69
2024/01/31 09:21:46;;;;;;;59.58;17.88;;;;;;;;;;5005000;28;20067;-69
2024/01/31 09:24:12;;;;;;;61.10;19.98;;;;;;;;;;5003593;28;20048;-69
2024/01/31 09:26:37;;;;;;;52.10;18.17;;;;;;;;;;5002300;28;20154;-69
2024/01/31 09:29:03;;;;;;;55.03;18.95;;;;;;;;;;4997862;28;20050;-69
2024/01/31 09:31:29;;;;;;;51.47;18.05;;;;;;;;;;5003018;28;20092;-69
2024/01/31 09:33:54;;;;;;;59.17;18.60;;;;;;;;;;5006064;28;20474;-69
2024/01/31 09:36:20;;;;;;;50.10;17.95;;;;;;;;;;5005977;28;20540;-69
2024/01/31 09:38:47;;;;;;;57.17;17.17;;;;;;;;;;5005916;28;20026;-69
2024/01/31 09:41:13;;;;;;;48.38;18.38;;;;;;;;;;5004802;28;20009;-69
2024/01/31 09:43:38;;;;;;;54.10;18.67;;;;;;;;;;5005318;28;20432;-69
2024/01/31 09:46:04;;;;;;;60.88;19.65;;;;;;;;;;5006767;28;20014;-69
2024/01/31 09:48:30;;;;;;;61.92;19.55;;;;;;;;;;5005539;28;20544;-69
2024/01/31 09:50:55;;;;;;;51.25;17.00;;;;;;;;;;5008558;28;20068;-69
2024/01/31 09:53:22;;;;;;;50.92;16.35;;;;;;;;;;5006520;28;20430;-69
2024/01/31 09:55:47;;;;;;;52.30;17.40;;;;;;;;;;5008503;28;20053;-70
2024/01/31 09:58:12;;;;;;;47.90;16.30;;;;;;;;;;5005545;28;20053;-70
2024/01/31 10:00:38;;;;;;;58.75;18.80;;;;;;;;;;5007533;28;20058;-70
2024/01/31 10:03:04;;;;;;;54.17;19.70;;;;;;;;;;5002646;28;20060;-70
2024/01/31 10:05:29;;;;;;;53.42;17.75;;;;;;;;;;5002492;28;20025;-70
2024/01/31 10:08:01;;;;;;;49.35;16.60;;;;;;;;;;5008711;28;20057;-70
2024/01/31 10:10:27;;;;;;;57.13;19.48;;;;;;;;;;5007421;28;20484;-70
2024/01/31 10:12:53;;;;;;;45.03;16.55;;;;;;;;;;5012070;28;20109;-70
2024/01/31 10:15:18;;;;;;;46.92;16.60;;;;;;;;;;5008542;28;20463;-70
2024/01/31 10:17:43;;;;;;;51.35;16.65;;;;;;;;;;5010399;28;20025;-70
2024/01/31 10:20:10;;;;;;;45.33;16.25;;;;;;;;;;5007368;28;20604;-70
2024/01/31 10:22:36;;;;;;;45.72;13.18;;;;;;;;;;5005708;28;20030;-70
2024/01/31 10:25:04;;;;;;;46.80;16.58;;;;;;;;;;5007370;28;20017;-70
2024/01/31 10:27:29;;;;;;;36.25;13.45;;;;;;;;;;5006480;28;20488;-70
2024/01/31 10:29:54;;;;;;;52.77;17.00;;;;;;;;;;5009354;28;20040;-70
2024/01/31 10:32:20;;;;;;;44.55;17.10;;;;;;;;;;5011928;28;20288;-70
2024/01/31 10:34:45;;;;;;;38.55;12.93;;;;;;;;;;5008044;28;20021;-70
2024/01/31 10:37:11;;;;;;;60.05;18.58;;;;;;;;;;5008741;28;20033;-70
2024/01/31 10:39:40;;;;;;;53.58;17.55;;;;;;;;;;5008799;28;20018;-70
2024/01/31 10:42:06;;;;;;;46.00;16.42;;;;;;;;;;5008743;28;20160;-70
2024/01/31 10:44:31;;;;;;;64.65;19.63;;;;;;;;;;5008501;28;20489;-70
2024/01/31 10:46:57;;;;;;;58.28;17.75;;;;;;;;;;5010832;28;20141;-70
2024/01/31 10:49:22;;;;;;;51.78;16.45;;;;;;;;;;5010818;28;20100;-70
2024/01/31 10:51:49;;;;;;;57.67;17.15;;;;;;;;;;5010023;28;20117;-70
2024/01/31 10:54:16;;;;;;;56.55;19.95;;;;;;;;;;5007073;28;20022;-70
2024/01/31 10:56:41;;;;;;;55.10;19.02;;;;;;;;;;5006638;28;20038;-70
2024/01/31 10:59:09;;;;;;;50.80;17.27;;;;;;;;;;5007614;28;20028;-70
2024/01/31 11:01:34;;;;;;;46.47;16.60;;;;;;;;;;5009678;28;20084;-70
2024/01/31 11:04:07;;;;;;;55.60;17.10;;;;;;;;;;5009655;28;20449;-70
2024/01/31 11:06:39;;;;;;;30.27;9.25;;;;;;;;;;5005249;28;20021;-68
2024/01/31 11:09:04;;;;;;;44.03;15.55;;;;;;;;;;5006123;28;20064;-68
2024/01/31 11:11:29;;;;;;;51.67;15.20;;;;;;;;;;5009023;28;20054;-68
2024/01/31 11:13:56;;;;;;;56.53;20.13;;;;;;;;;;5009068;28;20029;-68
2024/01/31 11:16:24;;;;;;;46.03;15.82;;;;;;;;;;5009225;28;20621;-68
2024/01/31 11:18:50;;;;;;;30.55;10.73;;;;;;;;;;5006948;28;20026;-68
2024/01/31 11:21:15;;;;;;;44.38;15.77;;;;;;;;;;5003954;28;20021;-68
2024/01/31 11:23:41;;;;;;;40.42;15.07;;;;;;;;;;5010429;28;20539;-68
2024/01/31 11:26:06;;;;;;;37.95;15.00;;;;;;;;;;5003573;28;20029;-70
2024/01/31 11:28:31;;;;;;;19.45;8.88;;;;;;;;;;5010739;28;20018;-68
2024/01/31 11:30:56;;;;;;;22.60;8.90;;;;;;;;;;5009269;28;20026;-70
2024/01/31 11:33:21;;;;;;;30.25;12.13;;;;;;;;;;5009449;28;20026;-68
2024/01/31 11:35:47;;;;;;;23.90;10.20;;;;;;;;;;5009770;28;20050;-68
2024/01/31 11:38:13;;;;;;;21.38;8.55;;;;;;;;;;5010187;28;20315;-68
2024/01/31 11:40:38;;;;;;;11.65;5.65;;;;;;;;;;5011045;28;20010;-68
2024/01/31 11:43:07;;;;;;;12.32;5.95;;;;;;;;;;5010902;28;20045;-68
2024/01/31 11:45:32;;;;;;;12.48;6.50;;;;;;;;;;5001597;28;20029;-68
2024/01/31 11:47:58;;;;;;;13.10;5.77;;;;;;;;;;5008198;28;20018;-68
2024/01/31 11:50:26;;;;;;;15.73;7.25;;;;;;;;;;5007726;28;20991;-68
2024/01/31 11:52:52;;;;;;;12.35;5.68;;;;;;;;;;5007173;28;20045;-68
2024/01/31 11:55:25;;;;;;;17.25;6.72;;;;;;;;;;5008889;28;20474;-68
2024/01/31 11:57:51;;;;;;;11.27;4.35;;;;;;;;;;5010939;28;20028;-68
2024/01/31 12:00:16;;;;;;;10.90;5.47;;;;;;;;;;5003495;28;20026;-68
2024/01/31 12:02:41;;;;;;;11.77;5.07;;;;;;;;;;5004673;28;20019;-68
2024/01/31 12:05:07;;;;;;;14.23;7.00;;;;;;;;;;5000097;28;20034;-68
2024/01/31 12:07:32;;;;;;;12.55;6.15;;;;;;;;;;4998636;28;20481;-68
2024/01/31 12:09:58;;;;;;;11.88;5.80;;;;;;;;;;5001538;28;20040;-68
2024/01/31 12:12:23;;;;;;;14.68;6.07;;;;;;;;;;5003355;28;20069;-68
2024/01/31 12:14:49;;;;;;;11.80;6.28;;;;;;;;;;4991801;28;20500;-68
2024/01/31 12:17:21;;;;;;;15.02;6.35;;;;;;;;;;5002407;28;20014;-68
2024/01/31 12:19:46;;;;;;;13.48;6.20;;;;;;;;;;5003559;28;20105;-68
2024/01/31 12:22:11;;;;;;;9.53;5.20;;;;;;;;;;4992402;28;20173;-68
2024/01/31 12:24:37;;;;;;;9.10;5.30;;;;;;;;;;5000117;28;20268;-68
2024/01/31 12:27:02;;;;;;;9.05;5.00;;;;;;;;;;4999190;28;20018;-68
2024/01/31 12:29:27;;;;;;;10.35;4.70;;;;;;;;;;4995238;28;20093;-68
2024/01/31 12:31:53;;;;;;;10.23;4.57;;;;;;;;;;4996259;28;20046;-67
2024/01/31 12:34:18;;;;;;;6.43;3.43;;;;;;;;;;4993778;28;20259;-67
2024/01/31 12:36:43;;;;;;;5.10;2.70;;;;;;;;;;4997187;28;20666;-67
2024/01/31 12:39:08;;;;;;;7.70;4.22;;;;;;;;;;5004437;28;20025;-67
2024/01/31 12:41:33;;;;;;;8.43;4.07;;;;;;;;;;5007833;28;20417;-67
2024/01/31 12:43:59;;;;;;;9.07;3.57;;;;;;;;;;5005423;28;20076;-67
2024/01/31 12:46:24;;;;;;;8.70;3.37;;;;;;;;;;5005471;28;20261;-67
2024/01/31 12:48:49;;;;;;;6.28;3.22;;;;;;;;;;4996065;28;20285;-67
2024/01/31 12:51:15;;;;;;;10.57;3.80;;;;;;;;;;5006344;28;20043;-67
2024/01/31 12:53:40;;;;;;;5.83;3.57;;;;;;;;;;5007063;28;20734;-67
2024/01/31 12:56:05;;;;;;;8.83;3.37;;;;;;;;;;5005629;28;20312;-67
2024/01/31 12:58:30;;;;;;;9.95;3.83;;;;;;;;;;5007011;28;20653;-67
2024/01/31 13:00:55;;;;;;;9.30;3.03;;;;;;;;;;5006157;28;20037;-67
2024/01/31 13:03:21;;;;;;;6.68;1.67;;;;;;;;;;5003280;28;20032;-67
2024/01/31 13:05:46;;;;;;;8.18;3.88;;;;;;;;;;5006993;28;20653;-67
2024/01/31 13:08:11;;;;;;;6.93;3.73;;;;;;;;;;5005675;28;20022;-67
2024/01/31 13:10:36;;;;;;;6.50;3.40;;;;;;;;;;5006804;28;20253;-67
2024/01/31 13:13:01;;;;;;;5.37;2.80;;;;;;;;;;5003817;28;20033;-67
2024/01/31 13:15:27;;;;;;;7.82;3.38;;;;;;;;;;5007534;28;20259;-67
2024/01/31 13:17:52;;;;;;;9.90;3.50;;;;;;;;;;5006986;28;20025;-67
2024/01/31 13:20:17;;;;;;;4.33;2.37;;;;;;;;;;5005297;28;20300;-66
2024/01/31 13:22:42;;;;;;;5.85;3.97;;;;;;;;;;5007041;28;20340;-67
2024/01/31 13:25:07;;;;;;;5.60;3.10;;;;;;;;;;5005450;28;20033;-67
2024/01/31 13:27:33;;;;;;;7.45;4.50;;;;;;;;;;5003167;28;20264;-67
2024/01/31 13:29:58;;;;;;;7.60;4.30;;;;;;;;;;5003559;28;20659;-67
2024/01/31 13:32:23;;;;;;;6.57;3.75;;;;;;;;;;5007619;28;20026;-66
2024/01/31 13:34:48;;;;;;;9.80;4.75;;;;;;;;;;5006740;28;20022;-66
2024/01/31 13:37:13;;;;;;;13.70;5.80;;;;;;;;;;5006630;28;20389;-67
2024/01/31 13:39:39;;;;;;;8.35;5.05;;;;;;;;;;5007698;28;20300;-67
2024/01/31 13:42:04;;;;;;;9.43;5.03;;;;;;;;;;5007808;28;20477;-68
2024/01/31 13:44:29;;;;;;;10.35;5.68;;;;;;;;;;5009964;28;20251;-67
2024/01/31 13:46:54;;;;;;;9.13;5.28;;;;;;;;;;5013587;28;20060;-67
2024/01/31 13:49:20;;;;;;;7.32;4.70;;;;;;;;;;5011799;28;20117;-67
2024/01/31 13:51:45;;;;;;;12.35;5.43;;;;;;;;;;5012682;28;20061;-67
2024/01/31 13:54:10;;;;;;;7.93;5.07;;;;;;;;;;5011331;28;20076;-67
2024/01/31 13:56:36;;;;;;;11.50;5.35;;;;;;;;;;5010213;28;20022;-67
2024/01/31 13:59:01;;;;;;;12.23;6.10;;;;;;;;;;5002727;28;20401;-67
2024/01/31 14:01:26;;;;;;;6.13;3.70;;;;;;;;;;5004784;28;20452;-67
2024/01/31 14:03:51;;;;;;;10.90;5.40;;;;;;;;;;5007862;28;20261;-67
2024/01/31 14:06:16;;;;;;;7.20;4.40;;;;;;;;;;5012145;28;20706;-68
2024/01/31 14:08:41;;;;;;;6.00;2.43;;;;;;;;;;5011290;28;20026;-67
2024/01/31 14:11:07;;;;;;;3.87;2.70;;;;;;;;;;5009765;28;20261;-67